createdAt,value
2022-09-03T00:02:23.803Z,15.07
2022-09-03T00:05:27.014Z,15.05
2022-09-03T00:08:23.476Z,15.01
2022-09-03T00:11:22.073Z,15.00
2022-09-03T00:14:15.558Z,14.96
2022-09-03T00:17:08.182Z,14.90
2022-09-03T00:19:59.980Z,14.88
2022-09-03T00:22:49.268Z,14.85
2022-09-03T00:25:43.121Z,14.82
2022-09-03T00:29:01.091Z,14.82
2022-09-03T00:31:51.706Z,14.77
2022-09-03T00:34:41.442Z,14.78
2022-09-03T00:37:29.505Z,14.73
2022-09-03T00:40:35.751Z,14.70
2022-09-03T00:43:31.570Z,14.68
2022-09-03T00:46:19.987Z,14.66
2022-09-03T00:49:30.073Z,14.61
2022-09-03T00:52:35.137Z,14.56
2022-09-03T00:55:29.110Z,14.57
2022-09-03T00:58:30.325Z,14.53
2022-09-03T01:01:18.437Z,14.53
2022-09-03T01:04:28.043Z,14.51
2022-09-03T01:07:31.200Z,14.52
2022-09-03T01:10:42.095Z,14.43
2022-09-03T01:13:41.530Z,14.41
2022-09-03T01:16:32.251Z,14.40
2022-09-03T01:19:35.615Z,14.41
2022-09-03T01:22:39.434Z,14.37
2022-09-03T01:25:32.369Z,14.37
2022-09-03T01:28:27.217Z,14.34
2022-09-03T01:31:40.161Z,14.37
2022-09-03T01:34:41.208Z,14.30
2022-09-03T01:37:44.864Z,14.28
2022-09-03T01:40:50.958Z,14.24
2022-09-03T01:43:51.842Z,14.24
2022-09-03T01:46:46.043Z,14.23
2022-09-03T01:49:41.285Z,14.22
2022-09-03T01:52:51.710Z,14.18
2022-09-03T01:55:56.955Z,14.17
2022-09-03T01:58:45.643Z,14.16
2022-09-03T02:01:37.118Z,14.13
2022-09-03T02:04:25.555Z,14.12
2022-09-03T02:07:11.242Z,14.10
2022-09-03T02:09:56.645Z,14.11
2022-09-03T02:12:56.260Z,14.11
2022-09-03T02:15:46.476Z,14.10
2022-09-03T02:18:41.394Z,14.09
2022-09-03T02:21:33.097Z,14.06
2022-09-03T02:24:18.500Z,14.02
2022-09-03T02:27:04.448Z,14.01
2022-09-03T02:29:50.679Z,14.01
2022-09-03T02:32:36.078Z,13.96
2022-09-03T02:35:21.513Z,13.94
2022-09-03T02:38:11.991Z,13.89
2022-09-03T02:40:57.280Z,13.89
2022-09-03T02:43:50.041Z,13.85
2022-09-03T02:46:47.033Z,13.86
2022-09-03T02:49:35.040Z,13.81
2022-09-03T02:52:20.242Z,13.80
2022-09-03T02:55:05.979Z,13.77
2022-09-03T02:57:51.543Z,13.71
2022-09-03T03:00:37.272Z,13.70
2022-09-03T03:03:22.470Z,13.71
2022-09-03T03:06:08.565Z,13.69
2022-09-03T03:08:57.692Z,13.70
2022-09-03T03:11:43.218Z,13.63
2022-09-03T03:14:28.326Z,13.61
2022-09-03T03:17:13.831Z,13.54
2022-09-03T03:19:58.940Z,13.53
2022-09-03T03:22:44.009Z,13.50
2022-09-03T03:25:29.215Z,13.44
2022-09-03T03:28:15.225Z,13.45
2022-09-03T03:31:12.426Z,13.41
2022-09-03T03:34:00.441Z,13.40
2022-09-03T03:36:45.994Z,13.39
2022-09-03T03:39:31.846Z,13.39
2022-09-03T03:42:17.199Z,13.36
2022-09-03T03:45:02.964Z,13.31
2022-09-03T03:47:48.387Z,13.31
2022-09-03T03:50:33.829Z,13.29
2022-09-03T03:53:19.480Z,13.29
2022-09-03T03:56:07.828Z,13.30
2022-09-03T03:58:54.484Z,13.30
2022-09-03T04:01:39.834Z,13.29
2022-09-03T04:04:25.278Z,13.30
2022-09-03T04:07:10.542Z,13.35
2022-09-03T04:09:55.720Z,13.37
2022-09-03T04:12:41.257Z,13.40
2022-09-03T04:15:26.442Z,13.38
2022-09-03T04:18:12.020Z,13.38
2022-09-03T04:21:25.432Z,13.37
2022-09-03T04:24:13.768Z,13.38
2022-09-03T04:26:59.040Z,13.32
2022-09-03T04:29:44.335Z,13.32
2022-09-03T04:32:48.443Z,13.30
2022-09-03T04:35:38.140Z,13.23
2022-09-03T04:38:24.314Z,13.22
2022-09-03T04:41:12.876Z,13.18
2022-09-03T04:43:59.556Z,13.12
2022-09-03T04:46:47.685Z,13.15
2022-09-03T04:49:33.016Z,13.15
2022-09-03T04:52:18.138Z,13.18
2022-09-03T04:55:03.391Z,13.20
2022-09-03T04:57:48.727Z,13.20
2022-09-03T05:00:34.071Z,13.24
2022-09-03T05:03:20.736Z,13.29
2022-09-03T05:06:06.327Z,13.32
2022-09-03T05:08:54.369Z,13.36
2022-09-03T05:11:40.185Z,13.36
2022-09-03T05:14:25.348Z,13.40
2022-09-03T05:17:10.706Z,13.41
2022-09-03T05:19:56.044Z,13.47
2022-09-03T05:22:41.241Z,13.54
2022-09-03T05:25:27.078Z,13.58
2022-09-03T05:28:13.274Z,13.63
2022-09-03T05:31:06.676Z,13.70
2022-09-03T05:33:54.926Z,13.72
2022-09-03T05:36:40.645Z,13.79
2022-09-03T05:39:26.303Z,13.88
2022-09-03T05:42:13.054Z,13.94
2022-09-03T05:44:58.567Z,13.98
2022-09-03T05:47:43.722Z,14.09
2022-09-03T05:50:28.927Z,14.16
2022-09-03T05:53:14.414Z,14.21
2022-09-03T05:56:01.105Z,14.27
2022-09-03T05:58:51.094Z,14.24
2022-09-03T06:01:43.218Z,14.20
2022-09-03T06:04:35.931Z,13.99
2022-09-03T06:07:21.427Z,14.01
2022-09-03T06:10:07.841Z,13.99
2022-09-03T06:12:53.229Z,14.03
2022-09-03T06:15:39.107Z,14.18
2022-09-03T06:18:28.311Z,14.24
2022-09-03T06:21:15.063Z,14.14
2022-09-03T06:24:00.664Z,14.23
2022-09-03T06:26:46.705Z,14.29
2022-09-03T06:29:32.188Z,14.29
2022-09-03T06:32:17.447Z,14.35
2022-09-03T06:35:02.324Z,14.40
2022-09-03T06:37:47.659Z,14.43
2022-09-03T06:40:33.138Z,14.50
2022-09-03T06:43:18.593Z,14.56
2022-09-03T06:46:10.355Z,14.61
2022-09-03T06:48:55.714Z,14.72
2022-09-03T06:51:41.116Z,14.71
2022-09-03T06:54:26.470Z,14.66
2022-09-03T06:57:11.777Z,14.77
2022-09-03T06:59:57.106Z,14.85
2022-09-03T07:02:44.953Z,14.97
2022-09-03T07:05:30.962Z,15.03
2022-09-03T07:08:16.161Z,15.14
2022-09-03T07:11:09.227Z,15.23
2022-09-03T07:13:56.076Z,15.34
2022-09-03T07:16:43.111Z,15.34
2022-09-03T07:19:28.891Z,15.42
2022-09-03T07:22:14.608Z,15.53
2022-09-03T07:25:00.404Z,15.55
2022-09-03T07:27:47.934Z,15.59
2022-09-03T07:30:33.453Z,15.69
2022-09-03T07:33:19.919Z,15.68
2022-09-03T07:36:08.538Z,15.85
2022-09-03T07:38:58.625Z,15.98
2022-09-03T07:41:45.824Z,16.09
2022-09-03T07:44:31.311Z,16.17
2022-09-03T07:47:21.599Z,16.16
2022-09-03T07:50:12.555Z,16.30
2022-09-03T07:53:01.203Z,16.42
2022-09-03T07:55:48.016Z,16.47
2022-09-03T07:58:35.065Z,16.53
2022-09-03T08:01:21.683Z,16.61
2022-09-03T08:04:09.523Z,16.59
2022-09-03T08:06:56.787Z,16.65
2022-09-03T08:09:45.042Z,16.83
2022-09-03T08:12:32.667Z,17.06
2022-09-03T08:15:18.091Z,17.28
2022-09-03T08:18:05.919Z,17.50
2022-09-03T08:20:51.250Z,17.57
2022-09-03T08:23:38.436Z,17.56
2022-09-03T08:26:23.894Z,17.96
2022-09-03T08:29:09.431Z,18.33
2022-09-03T08:31:54.820Z,18.51
2022-09-03T08:34:40.485Z,18.34
2022-09-03T08:37:28.985Z,18.39
2022-09-03T08:40:14.797Z,18.36
2022-09-03T08:43:18.910Z,18.37
2022-09-03T08:46:04.216Z,18.14
2022-09-03T08:48:49.876Z,18.19
2022-09-03T08:51:37.768Z,18.23
2022-09-03T08:54:26.995Z,18.38
2022-09-03T08:57:19.605Z,18.33
2022-09-03T09:00:06.250Z,18.34
2022-09-03T09:02:57.465Z,18.56
2022-09-03T09:05:47.960Z,18.62
2022-09-03T09:08:45.302Z,18.64
2022-09-03T09:11:53.497Z,18.76
2022-09-03T09:15:05.908Z,18.89
2022-09-03T09:18:12.862Z,18.82
2022-09-03T09:21:20.990Z,19.06
2022-09-03T09:24:19.380Z,18.93
2022-09-03T09:27:15.377Z,19.01
2022-09-03T09:30:04.942Z,19.12
2022-09-03T09:32:51.491Z,19.30
2022-09-03T09:35:36.910Z,19.46
2022-09-03T09:38:48.769Z,19.49
2022-09-03T09:41:34.035Z,19.33
2022-09-03T09:44:21.048Z,19.46
2022-09-03T09:47:11.898Z,19.46
2022-09-03T09:50:05.436Z,19.58
2022-09-03T09:53:08.683Z,19.68
2022-09-03T09:55:58.758Z,19.53
2022-09-03T09:58:47.551Z,19.53
2022-09-03T10:01:33.848Z,19.73
2022-09-03T10:04:24.401Z,20.03
2022-09-03T10:07:24.143Z,19.95
2022-09-03T10:10:21.031Z,20.21
2022-09-03T10:13:12.739Z,20.48
2022-09-03T10:16:03.364Z,20.67
2022-09-03T10:19:12.296Z,20.74
2022-09-03T10:22:26.390Z,20.83
2022-09-03T10:25:19.657Z,20.41
2022-09-03T10:28:08.591Z,20.19
2022-09-03T10:31:08.978Z,20.24
2022-09-03T10:33:59.356Z,19.90
2022-09-03T10:37:00.669Z,19.72
2022-09-03T10:39:55.127Z,19.62
2022-09-03T10:42:51.523Z,19.76
2022-09-03T10:45:59.271Z,20.18
2022-09-03T10:48:58.651Z,20.31
2022-09-03T10:52:10.356Z,20.24
2022-09-03T10:55:15.302Z,20.35
2022-09-03T10:58:23.561Z,20.61
2022-09-03T11:01:23.498Z,20.57
2022-09-03T11:04:20.551Z,20.67
2022-09-03T11:07:12.349Z,20.70
2022-09-03T11:10:15.941Z,20.72
2022-09-03T11:13:08.616Z,20.99
2022-09-03T11:16:06.738Z,21.05
2022-09-03T11:19:02.283Z,21.06
2022-09-03T11:21:48.878Z,21.58
2022-09-03T11:24:39.902Z,21.45
2022-09-03T11:27:34.025Z,20.97
2022-09-03T11:30:40.386Z,20.94
2022-09-03T11:33:27.289Z,21.20
2022-09-03T11:36:12.791Z,21.27
2022-09-03T11:39:00.880Z,21.16
2022-09-03T11:41:57.949Z,21.37
2022-09-03T11:44:51.615Z,21.43
2022-09-03T11:47:41.962Z,21.34
2022-09-03T11:50:30.296Z,21.27
2022-09-03T11:53:16.316Z,21.18
2022-09-03T11:56:18.094Z,21.12
2022-09-03T11:59:13.781Z,21.29
2022-09-03T12:02:27.462Z,21.37
2022-09-03T12:05:42.612Z,21.81
2022-09-03T12:09:02.605Z,21.85
2022-09-03T12:12:29.923Z,21.90
2022-09-03T12:15:27.531Z,21.81
2022-09-03T12:18:22.609Z,21.78
2022-09-03T12:21:10.617Z,21.55
2022-09-03T12:23:58.287Z,21.58
2022-09-03T12:26:44.085Z,21.57
2022-09-03T12:29:31.326Z,21.56
2022-09-03T12:32:18.552Z,21.84
2022-09-03T12:35:58.402Z,21.72
2022-09-03T12:38:25.860Z,21.82
2022-09-03T12:41:29.273Z,21.90
2022-09-03T12:44:14.601Z,22.21
2022-09-03T12:50:23.599Z,22.54
2022-09-03T12:53:12.305Z,22.15
2022-09-03T12:56:01.975Z,21.97
2022-09-03T12:58:50.806Z,22.00
2022-09-03T13:01:51.223Z,22.35
2022-09-03T13:04:37.513Z,22.54
2022-09-03T13:07:36.380Z,22.61
2022-09-03T13:10:31.332Z,22.87
2022-09-03T13:13:25.329Z,22.48
2022-09-03T13:16:29.222Z,22.16
2022-09-03T13:19:19.071Z,22.33
2022-09-03T13:22:39.136Z,22.33
2022-09-03T13:25:29.911Z,22.40
2022-09-03T13:28:39.903Z,22.24
2022-09-03T13:31:33.505Z,22.03
2022-09-03T13:34:35.983Z,21.85
2022-09-03T13:37:39.796Z,21.80
2022-09-03T13:40:31.374Z,21.61
2022-09-03T13:43:26.733Z,21.61
2022-09-03T13:46:35.946Z,21.40
2022-09-03T13:50:01.411Z,21.39
2022-09-03T13:52:59.201Z,21.31
2022-09-03T13:55:52.815Z,21.36
2022-09-03T13:59:04.136Z,21.34
2022-09-03T14:02:05.933Z,21.36
2022-09-03T14:04:57.630Z,21.38
2022-09-03T14:07:58.193Z,21.45
2022-09-03T14:11:04.207Z,21.48
2022-09-03T14:14:05.047Z,21.37
2022-09-03T14:16:57.986Z,21.38
2022-09-03T14:20:02.422Z,21.57
2022-09-03T14:23:18.807Z,21.73
2022-09-03T14:26:07.587Z,21.72
2022-09-03T14:29:09.049Z,21.61
2022-09-03T14:32:23.846Z,21.80
2022-09-03T14:35:34.193Z,21.97
2022-09-03T14:38:50.778Z,22.03
2022-09-03T14:41:37.257Z,22.05
2022-09-03T14:44:45.613Z,21.87
2022-09-03T14:48:01.123Z,21.61
2022-09-03T14:51:08.268Z,21.64
2022-09-03T14:54:02.226Z,21.72
2022-09-03T14:57:09.553Z,21.85
2022-09-03T15:00:43.337Z,21.99
2022-09-03T15:03:50.647Z,22.18
2022-09-03T15:06:45.351Z,22.09
2022-09-03T15:09:52.319Z,22.08
2022-09-03T15:12:43.234Z,21.90
2022-09-03T15:16:01.618Z,21.79
2022-09-03T15:19:01.761Z,21.77
2022-09-03T15:22:11.373Z,21.64
2022-09-03T15:25:27.894Z,21.40
2022-09-03T15:28:34.495Z,21.34
2022-09-03T15:32:05.028Z,21.22
2022-09-03T15:34:59.345Z,21.24
2022-09-03T15:38:10.857Z,21.18
2022-09-03T15:41:01.093Z,21.20
2022-09-03T15:43:50.936Z,21.20
2022-09-03T15:46:53.656Z,21.12
2022-09-03T15:49:47.264Z,21.05
2022-09-03T15:53:19.248Z,20.99
2022-09-03T15:56:45.421Z,20.97
2022-09-03T15:59:41.041Z,20.97
2022-09-03T16:02:39.925Z,20.91
2022-09-03T16:05:45.505Z,20.88
2022-09-03T16:08:43.627Z,20.86
2022-09-03T16:11:45.127Z,20.86
2022-09-03T16:14:38.184Z,20.87
2022-09-03T16:17:33.881Z,20.91
2022-09-03T16:20:22.823Z,20.95
2022-09-03T16:23:19.642Z,20.98
2022-09-03T16:26:09.075Z,20.96
2022-09-03T16:29:02.941Z,20.92
2022-09-03T16:32:23.813Z,20.83
2022-09-03T16:35:29.533Z,20.74
2022-09-03T16:38:31.147Z,20.66
2022-09-03T16:41:41.661Z,20.62
2022-09-03T16:44:51.780Z,20.60
2022-09-03T16:47:37.171Z,20.62
2022-09-03T16:50:41.367Z,20.65
2022-09-03T16:54:03.146Z,20.66
2022-09-03T16:57:02.095Z,20.67
2022-09-03T16:59:59.349Z,20.64
2022-09-03T17:03:26.056Z,20.59
2022-09-03T17:06:21.169Z,20.47
2022-09-03T17:09:28.334Z,20.38
2022-09-03T17:12:39.531Z,20.29
2022-09-03T17:15:33.770Z,20.24
2022-09-03T17:18:38.957Z,20.18
2022-09-03T17:21:33.667Z,20.18
2022-09-03T17:24:35.941Z,20.15
2022-09-03T17:27:44.735Z,20.08
2022-09-03T17:30:43.871Z,20.01
2022-09-03T17:33:48.750Z,19.95
2022-09-03T17:36:38.387Z,19.93
2022-09-03T17:39:32.691Z,19.92
2022-09-03T17:42:33.481Z,19.89
2022-09-03T17:45:36.436Z,19.83
2022-09-03T17:48:44.358Z,19.74
2022-09-03T17:52:02.024Z,19.69
2022-09-03T17:54:52.723Z,19.66
2022-09-03T17:57:48.140Z,19.65
2022-09-03T18:00:45.720Z,19.62
2022-09-03T18:03:41.125Z,19.57
2022-09-03T18:06:41.267Z,19.53
2022-09-03T18:09:39.946Z,19.48
2022-09-03T18:13:03.177Z,19.40
2022-09-03T18:15:58.723Z,19.34
2022-09-03T18:18:47.828Z,19.31
2022-09-03T18:21:57.359Z,19.29
2022-09-03T18:25:12.774Z,19.30
2022-09-03T18:28:23.317Z,19.33
2022-09-03T18:31:35.144Z,19.34
2022-09-03T18:34:44.737Z,19.33
2022-09-03T18:37:48.608Z,19.31
2022-09-03T18:41:03.960Z,19.32
2022-09-03T18:44:48.226Z,19.33
2022-09-03T18:48:18.092Z,19.30
2022-09-03T18:51:39.522Z,19.29
2022-09-03T18:55:18.200Z,19.26
2022-09-03T18:58:22.515Z,19.24
2022-09-03T19:01:44.618Z,19.21
2022-09-03T19:05:02.974Z,19.16
2022-09-03T19:08:39.964Z,19.13
2022-09-03T19:12:23.026Z,19.10
2022-09-03T19:15:53.332Z,19.08
2022-09-03T19:19:28.706Z,19.04
2022-09-03T19:22:50.083Z,19.03
2022-09-03T19:25:54.886Z,19.00
2022-09-03T19:29:11.869Z,18.97
2022-09-03T19:32:23.224Z,18.97
2022-09-03T19:35:47.446Z,18.99
2022-09-03T19:39:08.438Z,18.99
2022-09-03T19:42:38.599Z,19.00
2022-09-03T19:45:51.839Z,19.01
2022-09-03T19:49:21.445Z,18.99
2022-09-03T19:52:38.418Z,18.96
2022-09-03T19:55:48.906Z,18.97
2022-09-03T19:58:56.964Z,18.95
2022-09-03T20:02:02.430Z,18.95
2022-09-03T20:05:18.402Z,18.90
2022-09-03T20:08:23.168Z,18.89
2022-09-03T20:11:17.434Z,18.89
2022-09-03T20:14:14.561Z,18.86
2022-09-03T20:17:18.551Z,18.86
2022-09-03T20:20:18.808Z,18.86
2022-09-03T20:23:27.747Z,18.86
2022-09-03T20:26:31.464Z,18.84
2022-09-03T20:29:29.356Z,18.82
2022-09-03T20:32:52.339Z,18.81
2022-09-03T20:36:00.435Z,18.78
2022-09-03T20:39:10.978Z,18.79
2022-09-03T20:42:29.581Z,18.76
2022-09-03T20:45:31.884Z,18.71
2022-09-03T20:49:03.580Z,18.67
2022-09-03T20:51:58.915Z,18.64
2022-09-03T20:54:48.889Z,18.61
2022-09-03T20:57:48.974Z,18.55
2022-09-03T21:00:50.899Z,18.56
2022-09-03T21:04:02.381Z,18.55
2022-09-03T21:06:59.680Z,18.54
2022-09-03T21:10:07.314Z,18.53
2022-09-03T21:13:11.726Z,18.52
2022-09-03T21:16:26.390Z,18.51
2022-09-03T21:19:26.943Z,18.47
2022-09-03T21:22:39.973Z,18.51
2022-09-03T21:25:31.830Z,18.48
2022-09-03T21:28:30.476Z,18.48
2022-09-03T21:31:22.361Z,18.46
2022-09-03T21:34:30.443Z,18.43
2022-09-03T21:37:18.520Z,18.39
2022-09-03T21:40:08.014Z,18.35
2022-09-03T21:43:04.358Z,18.32
2022-09-03T21:46:12.991Z,18.27
2022-09-03T21:49:06.331Z,18.25
2022-09-03T21:51:59.736Z,18.20
2022-09-03T21:54:45.281Z,18.19
2022-09-03T21:58:15.410Z,18.15
2022-09-03T22:01:08.450Z,18.09
2022-09-03T22:03:54.389Z,18.06
2022-09-03T22:07:03.798Z,18.01
2022-09-03T22:10:20.348Z,17.97
2022-09-03T22:13:35.098Z,17.95
2022-09-03T22:16:51.846Z,17.94
2022-09-03T22:19:38.860Z,17.92
2022-09-03T22:22:33.607Z,17.93
2022-09-03T22:25:43.819Z,17.91
2022-09-03T22:28:47.543Z,17.89
2022-09-03T22:31:51.429Z,17.83
2022-09-03T22:35:05.395Z,17.80
2022-09-03T22:38:25.325Z,17.76
2022-09-03T22:41:30.336Z,17.71
2022-09-03T22:44:43.509Z,17.66
2022-09-03T22:47:42.842Z,17.61
2022-09-03T22:50:51.667Z,17.57
2022-09-03T22:53:49.346Z,17.51
2022-09-03T22:56:38.064Z,17.50
2022-09-03T22:59:28.615Z,17.42
2022-09-03T23:02:20.704Z,17.40
2022-09-03T23:05:10.532Z,17.36
2022-09-03T23:08:03.628Z,17.33
2022-09-03T23:11:28.145Z,17.30
2022-09-03T23:14:19.774Z,17.26
2022-09-03T23:17:14.863Z,17.22
2022-09-03T23:23:19.926Z,17.17
2022-09-03T23:26:13.343Z,17.12
2022-09-03T23:29:34.623Z,17.09
2022-09-03T23:32:20.303Z,17.06
2022-09-03T23:35:19.457Z,17.04
2022-09-03T23:38:14.332Z,16.99
2022-09-03T23:41:06.261Z,16.96
2022-09-03T23:44:13.279Z,16.92
2022-09-03T23:47:14.053Z,16.90
2022-09-03T23:50:06.602Z,16.86
2022-09-03T23:53:16.152Z,16.83
2022-09-03T23:56:08.507Z,16.79
2022-09-03T23:59:29.901Z,16.73
